^^
Station Historical Data
Daily Summary for October 27, 2017 Units:  Metric    English   Both
« Previous Day
Next Day »
Daily Weekly Monthly Yearly Custom
  High: Low: Average:
Temperature: 29.6 °C 22.6 °C 26.6 °C
Dew Point: -2.5 °C -13.4 °C -8.3 °C
Humidity: 16% 7% 10%
Wind Speed: 32km/h 0km/h 15.6km/h
Wind Gust: 38.6km/h - -
Wind- - East
Pressure: 1015.5 hPa 1011.7 hPa -
Precipitation: 0 mm    
Historical Graphs
 
 
Tabular Data for October 27, 2017
Time Temperature Dew Point Pressure Wind Wind Speed Wind Gust Humidity Rainfall Rate (Hourly) solar Conditions
11:43 25.1 °C -2.5 °C 1015.5 hPa Calm     16% 0 mm 800.0 W/m2
12:30 25.3 °C -3.2 °C 1015.1 hPa Calm   6.4 km/h 15% 0 mm 828.0 W/m2
13:26 26.9 °C -3.8 °C 1014.1 hPa Calm     13% 0 mm 823.0 W/m2
13:54 27.3 °C -4.6 °C 1013.8 hPa Calm     12% 0 mm 796.0 W/m2
14:48 28.2 °C -5.1 °C 1012.8 hPa ENE 9.7 km/h 16.1 km/h 11% 0 mm 714.0 W/m2
15:02 28.3 °C -5 °C 1012.4 hPa Calm   6.4 km/h 11% 0 mm 682.0 W/m2
15:33 28.8 °C -5.9 °C 1012.1 hPa Calm     10% 0 mm 610.0 W/m2
15:47 29.4 °C -5.4 °C 1012.1 hPa East 3.2 km/h 3.2 km/h 10% 0 mm 570.0 W/m2
16:08 29.1 °C -5.6 °C 1011.7 hPa Calm   14.5 km/h 10% 0 mm 510.0 W/m2
16:38 29.2 °C -5.6 °C 1011.7 hPa Calm     10% 0 mm 418.0 W/m2
16:46 29.6 °C -6.6 °C 1011.7 hPa East 25.9 km/h 29 km/h 9% 0 mm 397.0 W/m2
16:55 29.3 °C -6.9 °C 1011.7 hPa East 6.4 km/h 20.9 km/h 9% 0 mm 369.0 W/m2
17:05 29.2 °C -6.9 °C 1011.7 hPa East 24.1 km/h 29 km/h 9% 0 mm 334.0 W/m2
17:10 29.2 °C -6.9 °C 1011.7 hPa East 1.4 km/h 20.9 km/h 9% 0 mm 318.0 W/m2
17:15 29.2 °C -6.9 °C 1011.7 hPa East 9.7 km/h 25.7 km/h 9% 0 mm 304.0 W/m2
17:20 29.1 °C -7 °C 1011.7 hPa East 27.4 km/h 27.4 km/h 9% 0 mm 287.0 W/m2
17:25 29.1 °C -7 °C 1011.7 hPa East 28.8 km/h 29 km/h 9% 0 mm 274.0 W/m2
17:30 29.1 °C -8.5 °C 1011.7 hPa East 22.7 km/h 29 km/h 8% 0 mm 257.0 W/m2
17:36 28.8 °C -7.2 °C 1011.7 hPa ESE 24.1 km/h 32.2 km/h 9% 0 mm 243.0 W/m2
17:47 28.6 °C -7.4 °C 1011.7 hPa East 32 km/h 33.8 km/h 9% 0 mm 211.0 W/m2
17:56 28.4 °C -7.5 °C 1011.7 hPa ESE 24.1 km/h 33.8 km/h 9% 0 mm 174.0 W/m2
18:13 27.8 °C -8 °C 1011.7 hPa East 28.8 km/h 30.6 km/h 9% 0 mm 120.0 W/m2
18:26 27.6 °C -8.1 °C 1012.1 hPa East 24.1 km/h 35.4 km/h 9% 0 mm 84.0 W/m2
18:39 26.9 °C -10.2 °C 1012.1 hPa ESE 32 km/h 38.6 km/h 8% 0 mm 40.0 W/m2
19:22 25.4 °C -11.3 °C 1012.8 hPa ESE 20.9 km/h 27.4 km/h 8% 0 mm 0.0 W/m2
19:45 24.7 °C -13.4 °C 1012.8 hPa ESE 20.9 km/h 22.5 km/h 7% 0 mm 0.0 W/m2
20:05 24.4 °C -12 °C 1013.1 hPa East 16.3 km/h 30.6 km/h 8% 0 mm 0.0 W/m2
20:26 23.9 °C -12.4 °C 1013.4 hPa East 16.3 km/h 22.5 km/h 8% 0 mm 0.0 W/m2
20:42 23.6 °C -11.1 °C 1013.4 hPa East 19.5 km/h 27.4 km/h 9% 0 mm 0.0 W/m2
20:51 23.3 °C -11.4 °C 1013.4 hPa ESE 20.9 km/h 24.1 km/h 9% 0 mm 0.0 W/m2
21:06 23.1 °C -11.5 °C 1013.4 hPa East 24.1 km/h 27.4 km/h 9% 0 mm 0.0 W/m2
21:26 22.9 °C -10.4 °C 1013.4 hPa East 19.5 km/h 32.2 km/h 10% 0 mm 0.0 W/m2
21:55 22.7 °C -10.5 °C 1013.4 hPa East 16.3 km/h 30.6 km/h 10% 0 mm 0.0 W/m2
22:12 22.6 °C -11.9 °C 1013.4 hPa East 27.4 km/h 29 km/h 9% 0 mm 0.0 W/m2
22:25 22.7 °C -11.8 °C 1013.4 hPa East 22.7 km/h 32.2 km/h 9% 0 mm 0.0 W/m2
22:33 22.6 °C -13.4 °C 1013.4 hPa East 16.3 km/h 29 km/h 8% 0 mm 0.0 W/m2
22:42 22.6 °C -13.4 °C 1013.4 hPa East 14.3 km/h 27.4 km/h 8% 0 mm 0.0 W/m2
Canyon Roadhouse, Fishriver Canyon, Namibia
Compliments of Weather Underground - 1.75 mb